الصفحة الرئيسية
METAR-TAF:

METAR-TAF

مطار :

Fairbanks, ألاسكا, الولايات المتحدة

دائرة عرض: 64-48-14N, خط طول: 147-52-34W, ارتفاع: 132 متر

مراقبة الطقس الحالي

تاريخ ووقت الإصدار 41 دقيقة قبل الساعة 15:53UTC
رياح هادئة
درجة الحرارة -18°درجة مئوية
الرطوبة 77%
ضغط 1021 hPa
الرؤية: 16.1 كم
غيوم متفرقة على ارتفاع 22000 قدم

METAR: PAFA 161553Z 00000KT 10SM SCT220 M18/M21 A3016 RMK AO2 SLP230 T11781206

زمن: 07:34 (16:34 UTC)

توقعات

تاريخ ووقت الإصدار 5ساعات و 5 دقيقة قبل الساعة 11:29UTC
التوقعات صالحة من16 الساعة 12 UTC إلى 17 الساعة 18 UTC
ريح 3 عقدة من الشمال الشرقي
الرؤية: 10 كم
غيوم قليلة على ارتفاع 10000 قدم
غيوم قليلة على ارتفاع 20000 قدم
من 17 الساعة 1000 UTC
ريح 2 عقدة من الشمال/الشمال الشرقي
الرؤية: 10 كم
غيوم متفرقة على ارتفاع 10000 قدم
غيوم مفككة على ارتفاع 20000 قدم

TAF: PAFA 161129Z 1612/1718 05003KT P6SM FEW100 FEW200 FM171000 03002KT P6SM SCT100 BKN200

أرصاد الطقس والتوقعات من أكثر من 4000 مطار (تقارير الطقس للمطار METAR والتنبؤ بالطقس بالمطارTAF).

المحطات المتاحة هي النقط الصفراء والحمراء على الخريطة.

حرك المؤشر فوق النقطة لمعرفة اسم المحطة.

ثم انقر لمعرفة أرصاد وتوقعات الطقس.

لتغيير الخارطة: اضغط على الأزرار الخضراء مع رمز الصليب الأسود للتكبير. على الزر الأخضر مع شرطة للتصغير، أو على الأسهم الخضراء للخرائط المجاورة.


METAR-TAF: